Time;durP1;ratioP1;P1;durP2;ratioP2;P2;SDS_P1;SDS_P2;PMS_P1;PMS_P2;Temp;Humidity;BMP_temperature;BMP_pressure;BME280_temperature;BME280_humidity;BME280_pressure;Samples;Min_cycle;Max_cycle;Signal;HPM_P1;HPM_P2
2022/11/19 08:52:34;;;;;;;17.02;11.05;;;;;;;18.95;47.12;101440.72;4947039;27;4049566;-45
2022/11/19 08:55:03;;;;;;;18.20;10.82;;;;;;;20.09;44.45;101439.97;5069787;28;20033;-46
2022/11/19 08:57:31;;;;;;;12.63;8.98;;;;;;;20.93;42.18;101439.44;5069729;28;20029;-42
2022/11/19 09:00:00;;;;;;;15.20;8.48;;;;;;;21.50;41.04;101437.75;5069727;28;20032;-42
2022/11/19 09:02:29;;;;;;;16.58;8.85;;;;;;;21.85;40.09;101442.28;5069571;28;20474;-45
2022/11/19 09:04:58;;;;;;;12.27;7.93;;;;;;;22.12;39.62;101446.56;5069590;28;20056;-47
2022/11/19 09:07:26;;;;;;;10.80;7.57;;;;;;;22.30;39.27;101456.63;5069246;28;20107;-43
2022/11/19 09:09:55;;;;;;;10.82;6.82;;;;;;;22.45;38.74;101451.88;5068295;28;20094;-44
2022/11/19 09:12:23;;;;;;;13.93;6.40;;;;;;;22.64;38.54;101454.09;5069443;28;20573;-44
2022/11/19 09:14:52;;;;;;;8.80;6.68;;;;;;;22.69;38.42;101452.47;5069330;28;20021;-43
2022/11/19 09:17:21;;;;;;;8.32;4.85;;;;;;;22.78;38.12;101442.28;5068136;28;20020;-43
2022/11/19 09:19:49;;;;;;;9.43;5.50;;;;;;;22.86;38.06;101448.56;5069446;28;20032;-43
2022/11/19 09:22:18;;;;;;;8.75;5.45;;;;;;;22.84;38.11;101436.31;5069249;28;20040;-43
2022/11/19 09:24:46;;;;;;;7.18;4.80;;;;;;;22.89;38.19;101438.19;5068925;28;20024;-43
2022/11/19 09:27:15;;;;;;;6.65;3.65;;;;;;;22.94;37.68;101445.28;5068767;28;20482;-49
2022/11/19 09:29:44;;;;;;;6.50;4.68;;;;;;;23.01;37.50;101436.72;5068915;28;20037;-43
2022/11/19 09:32:12;;;;;;;7.97;4.10;;;;;;;23.09;37.89;101422.09;5069019;28;20523;-43
2022/11/19 09:34:41;;;;;;;5.45;3.97;;;;;;;23.01;37.77;101405.31;5068979;28;20029;-43
2022/11/19 09:37:10;;;;;;;5.65;3.83;;;;;;;23.17;37.57;101409.19;5067643;28;20045;-47
2022/11/19 09:39:38;;;;;;;6.38;3.83;;;;;;;23.18;37.25;101408.34;5068970;28;20043;-43
2022/11/19 09:42:13;;;;;;;5.07;3.08;;;;;;;23.26;37.47;101403.31;5069037;28;20115;-43
2022/11/19 09:45:01;;;;;;;5.43;3.45;;;;;;;23.20;37.54;101404.94;5067588;28;20422;-43
2022/11/19 09:47:37;;;;;;;4.28;2.80;;;;;;;23.25;37.33;101402.41;5062307;28;20044;-44
2022/11/19 09:50:25;;;;;;;4.50;2.88;;;;;;;23.27;37.25;101407.72;5068574;28;20039;-43
2022/11/19 09:52:59;;;;;;;4.57;2.60;;;;;;;23.32;37.23;101414.81;5067233;28;20032;-43
2022/11/19 09:55:35;;;;;;;5.80;2.60;;;;;;;23.40;37.26;101424.59;5068628;28;20086;-43
2022/11/19 09:58:07;;;;;;;6.80;2.95;;;;;;;23.41;36.88;101423.75;5068321;28;20032;-47
2022/11/19 10:00:35;;;;;;;6.50;2.55;;;;;;;23.39;37.05;101426.31;5066917;28;20017;-44
2022/11/19 10:03:13;;;;;;;5.18;3.17;;;;;;;23.43;37.09;101429.88;5058108;28;20102;-44
2022/11/19 10:06:00;;;;;;;2.58;1.88;;;;;;;23.44;37.18;101427.31;5053808;28;20021;-43
2022/11/19 10:08:38;;;;;;;3.15;2.28;;;;;;;23.44;36.97;101429.91;5050866;28;20060;-43
2022/11/19 10:11:29;;;;;;;4.07;2.50;;;;;;;23.47;36.98;101418.63;5055038;28;20104;-43
2022/11/19 10:14:18;;;;;;;3.25;1.75;;;;;;;23.46;36.59;101420.38;5051088;28;20060;-43
2022/11/19 10:16:56;;;;;;;2.97;1.67;;;;;;;23.42;36.96;101426.38;5053984;28;20482;-47
2022/11/19 10:19:27;;;;;;;5.50;1.90;;;;;;;23.49;36.70;101430.00;5054982;28;20033;-43
2022/11/19 10:22:25;;;;;;;2.50;1.70;;;;;;;23.46;36.63;101427.31;5054798;28;20087;-43
2022/11/19 10:25:14;;;;;;;2.47;1.60;;;;;;;23.43;37.04;101435.09;5048419;28;20040;-43
2022/11/19 10:28:01;;;;;;;2.30;1.55;;;;;;;23.49;36.57;101446.63;5053376;28;20079;-43
2022/11/19 10:30:30;;;;;;;2.90;1.83;;;;;;;23.48;36.41;101451.81;5050828;28;20137;-44
2022/11/19 10:33:01;;;;;;;6.20;2.05;;;;;;;23.49;36.39;101464.06;5053351;28;20040;-47
2022/11/19 10:35:32;;;;;;;3.15;1.80;;;;;;;23.48;36.79;101465.81;5053085;28;20029;-46
2022/11/19 10:38:01;;;;;;;2.47;1.40;;;;;;;23.49;36.69;101464.06;5053380;28;20100;-44
2022/11/19 10:40:36;;;;;;;2.15;1.30;;;;;;;23.53;36.46;101460.66;5052749;28;20041;-53
2022/11/19 10:43:18;;;;;;;3.88;1.45;;;;;;;23.51;36.48;101458.00;5054532;28;20025;-50
2022/11/19 10:45:46;;;;;;;3.13;1.40;;;;;;;23.60;36.58;101457.31;5053437;28;20025;-50
2022/11/19 10:48:21;;;;;;;4.90;1.65;;;;;;;23.60;36.40;101456.44;5054307;28;20025;-53
2022/11/19 10:50:51;;;;;;;5.70;1.42;;;;;;;23.60;36.50;101452.06;5059714;28;20122;-51
2022/11/19 10:53:35;;;;;;;2.42;1.27;;;;;;;23.56;36.53;101459.84;5074248;28;20377;-50
2022/11/19 10:56:12;;;;;;;4.30;1.45;;;;;;;23.54;36.34;101451.97;5074105;28;20107;-52
2022/11/19 10:58:48;;;;;;;1.85;1.10;;;;;;;23.56;36.68;101455.50;5056080;28;20431;-51
2022/11/19 11:01:27;;;;;;;1.67;1.40;;;;;;;23.58;36.34;101458.16;5056398;28;20031;-52
2022/11/19 11:04:17;;;;;;;4.90;1.50;;;;;;;23.60;36.08;101464.31;5074292;28;20020;-53
2022/11/19 11:06:56;;;;;;;3.08;1.40;;;;;;;23.62;36.50;101468.72;5073605;28;20029;-47
2022/11/19 11:09:43;;;;;;;1.55;1.00;;;;;;;23.63;36.13;101467.00;5073914;28;20029;-48
2022/11/19 11:15:20;;;;;;;1.63;1.00;;;;;;;23.69;35.86;101466.25;5062619;28;20040;-51
2022/11/19 11:17:52;;;;;;;1.65;0.93;;;;;;;23.59;36.33;101460.78;5073656;28;20051;-55
2022/11/19 11:20:22;;;;;;;1.48;0.82;;;;;;;23.59;36.25;101466.03;5055823;28;20099;-54
2022/11/19 11:22:51;;;;;;;1.40;0.98;;;;;;;23.61;36.12;101459.09;5073565;28;20032;-52
2022/11/19 11:25:24;;;;;;;2.30;0.98;;;;;;;23.57;36.13;101454.66;5039142;28;20028;-52
2022/11/19 11:28:16;;;;;;;1.52;0.85;;;;;;;23.49;36.65;101457.09;5055577;28;20024;-55
2022/11/19 11:30:53;;;;;;;1.25;0.70;;;;;;;23.48;36.63;101442.25;5073054;28;20060;-47
2022/11/19 11:33:29;;;;;;;1.00;0.75;;;;;;;23.51;36.48;101439.66;5073099;28;20086;-50
2022/11/19 11:36:00;;;;;;;4.70;1.55;;;;;;;23.66;36.05;101433.91;5073259;28;20481;-54
2022/11/19 11:38:29;;;;;;;2.65;1.15;;;;;;;23.56;36.30;101431.94;5072961;28;20029;-54
2022/11/19 11:41:09;;;;;;;2.30;1.00;;;;;;;23.62;36.13;101434.66;5073246;28;20545;-50
2022/11/19 11:43:39;;;;;;;1.58;0.90;;;;;;;23.70;36.00;101423.50;5055687;28;20466;-54
2022/11/19 11:46:09;;;;;;;1.65;0.73;;;;;;;23.59;35.98;101429.34;5073289;28;20444;-54
2022/11/19 11:48:44;;;;;;;3.45;1.00;;;;;;;23.52;36.41;101424.84;5072980;28;20032;-54
2022/11/19 11:51:30;;;;;;;;;;;;;;;23.63;36.22;101419.84;5055522;28;20513;-54
2022/11/19 11:54:11;;;;;;;;;;;;;;;23.62;36.03;101407.59;5063410;28;19919;-51
2022/11/19 11:56:40;;;;;;;0.95;0.60;;;;;;;23.63;36.18;101410.25;5055141;28;19913;-46
2022/11/19 11:59:28;;;;;;;1.70;0.63;;;;;;;23.58;36.19;101403.16;5073205;28;20054;-54
2022/11/19 12:02:08;;;;;;;4.05;1.08;;;;;;;23.56;36.45;101397.88;5055494;28;20055;-54
2022/11/19 12:04:37;;;;;;;1.50;0.60;;;;;;;23.64;36.17;101404.16;5072789;28;20469;-46
2022/11/19 12:07:29;;;;;;;1.65;0.70;;;;;;;23.53;36.46;101400.44;5054795;28;20104;-54
2022/11/19 12:10:23;;;;;;;2.50;0.93;;;;;;;23.59;36.07;101397.06;5065074;28;20120;-45
2022/11/19 12:12:55;;;;;;;1.90;0.70;;;;;;;23.50;36.25;101392.50;5062912;28;20115;-44
2022/11/19 12:15:45;;;;;;;4.07;1.10;;;;;;;23.43;36.36;101396.72;5054640;28;20500;-42
2022/11/19 12:18:37;;;;;;;1.50;0.90;;;;;;;23.41;36.82;101389.69;5061815;28;20048;-43
2022/11/19 12:21:28;;;;;;;2.00;0.77;;;;;;;23.45;36.37;101379.31;5046938;28;20086;-43
2022/11/19 12:23:57;;;;;;;2.10;0.80;;;;;;;23.46;36.56;101380.19;5032009;28;20039;-43
2022/11/19 12:26:49;;;;;;;2.13;0.70;;;;;;;23.45;36.56;101389.78;5072138;28;20021;-43
2022/11/19 12:29:22;;;;;;;1.17;0.68;;;;;;;23.47;36.49;101382.88;5046433;28;20497;-43
2022/11/19 12:32:09;;;;;;;1.38;0.63;;;;;;;23.46;36.16;101378.47;5071826;28;20044;-44
2022/11/19 12:35:08;;;;;;;1.63;0.63;;;;;;;23.46;36.33;101374.94;5065181;28;20028;-43
2022/11/19 12:38:04;;;;;;;2.15;0.70;;;;;;;23.41;36.60;101379.22;5061299;28;20044;-43
2022/11/19 12:40:36;;;;;;;1.38;0.70;;;;;;;23.44;36.27;101368.78;5066366;28;20051;-43
2022/11/19 12:43:31;;;;;;;1.30;0.57;;;;;;;23.41;36.50;101379.22;5053907;28;20551;-43
2022/11/19 12:46:07;;;;;;;2.08;0.63;;;;;;;23.45;36.44;101374.09;5061370;28;20040;-50
2022/11/19 12:49:07;;;;;;;0.98;0.52;;;;;;;23.50;36.05;101382.03;5054468;28;20032;-47
2022/11/19 12:52:05;;;;;;;1.27;0.50;;;;;;;23.44;36.30;101387.13;5050049;28;20520;-45
2022/11/19 12:54:46;;;;;;;1.38;0.70;;;;;;;23.37;36.21;101391.34;5065635;28;20036;-46
2022/11/19 12:57:15;;;;;;;1.17;0.60;;;;;;;23.38;36.32;101387.00;5054470;28;20085;-47
2022/11/19 13:00:09;;;;;;;2.28;0.80;;;;;;;23.42;36.51;101394.97;5071837;28;20039;-53
2022/11/19 13:02:50;;;;;;;1.52;0.63;;;;;;;23.42;36.19;101381.88;5049981;28;20120;-43
2022/11/19 13:05:20;;;;;;;2.20;0.75;;;;;;;23.42;36.15;101374.00;5052106;28;20508;-44
2022/11/19 13:07:57;;;;;;;3.05;0.60;;;;;;;23.40;36.25;101382.69;5051981;28;20067;-43
2022/11/19 13:10:29;;;;;;;1.48;0.85;;;;;;;23.40;36.20;101377.47;5051979;28;20065;-43
2022/11/19 13:12:59;;;;;;;2.30;0.73;;;;;;;23.38;36.11;101374.78;5034453;28;20036;-43
2022/11/19 13:15:52;;;;;;;1.88;0.50;;;;;;;23.36;36.53;101376.47;5034591;28;20025;-44
2022/11/19 13:18:22;;;;;;;2.90;0.50;;;;;;;23.37;36.19;101378.25;5028336;28;20044;-44
2022/11/19 13:21:10;;;;;;;3.63;0.80;;;;;;;23.39;36.62;101378.31;5034378;28;20044;-43
2022/11/19 13:23:41;;;;;;;3.70;0.50;;;;;;;23.41;36.30;101390.56;5027081;28;20397;-43
2022/11/19 13:26:13;;;;;;;2.78;0.73;;;;;;;23.38;36.43;101382.63;5059113;28;20037;-45
2022/11/19 13:28:51;;;;;;;1.15;0.50;;;;;;;23.39;36.34;101383.53;5051016;28;20021;-44
2022/11/19 13:31:45;;;;;;;0.85;0.50;;;;;;;23.39;36.14;101383.53;5054157;28;20021;-46
2022/11/19 13:34:19;;;;;;;2.50;0.55;;;;;;;23.41;36.51;101385.34;5048363;28;20036;-43
2022/11/19 13:36:58;;;;;;;10.73;1.42;;;;;;;23.40;36.30;101394.03;5054099;28;20028;-43
2022/11/19 13:39:36;;;;;;;2.42;0.55;;;;;;;23.42;36.45;101391.44;5075402;28;20033;-44
2022/11/19 13:44:52;;;;;;;0.88;0.50;;;;;;;23.44;36.35;101397.59;5050501;28;20032;-45
2022/11/19 13:47:23;;;;;;;2.25;0.60;;;;;;;23.43;36.66;101386.25;5057693;28;20107;-44
2022/11/19 13:49:56;;;;;;;2.47;1.05;;;;;;;23.38;36.84;101381.78;5075526;28;20029;-43
2022/11/19 13:52:37;;;;;;;1.40;0.65;;;;;;;23.39;36.74;101379.19;5074830;28;20129;-44
2022/11/19 13:55:27;;;;;;;2.72;0.68;;;;;;;23.40;36.49;101380.06;5057784;28;20025;-43
2022/11/19 13:57:57;;;;;;;2.25;0.50;;;;;;;23.43;36.44;101369.66;5051482;28;20475;-48
2022/11/19 14:00:26;;;;;;;1.48;0.40;;;;;;;23.45;36.76;101375.81;5057560;28;20028;-44
2022/11/19 14:03:17;;;;;;;1.70;0.60;;;;;;;23.37;36.80;101362.53;5075417;28;20020;-43
2022/11/19 14:05:59;;;;;;;6.25;1.08;;;;;;;23.55;36.40;101369.03;5057392;28;20021;-43
2022/11/19 14:08:57;;;;;;;4.20;0.60;;;;;;;23.50;36.38;101361.09;5056681;28;20029;-43
2022/11/19 14:11:56;;;;;;;5.05;0.60;;;;;;;23.48;36.50;101373.25;5049190;28;20048;-43
2022/11/19 14:26:40;;;;;;;2.85;0.50;;;;;;;23.37;36.99;101367.78;5063902;28;20036;-43
2022/11/19 14:29:17;;;;;;;2.95;0.70;;;;;;;23.44;36.57;101368.78;5074642;28;20085;-43
2022/11/19 14:32:05;;;;;;;1.88;0.50;;;;;;;23.43;36.98;101361.78;5074568;28;20039;-43
2022/11/19 14:34:53;;;;;;;2.72;0.40;;;;;;;23.41;36.69;101368.75;5064687;28;20029;-43
2022/11/19 14:37:25;;;;;;;3.75;2.00;;;;;;;23.45;36.35;101370.56;5048151;28;20040;-44
2022/11/19 14:40:01;;;;;;;6.18;4.68;;;;;;;23.41;36.73;101367.00;5054312;28;20029;-47
2022/11/19 14:42:29;;;;;;;10.45;7.07;;;;;;;23.56;36.31;101366.47;5074140;28;20024;-43
2022/11/19 14:45:06;;;;;;;10.93;7.78;;;;;;;23.42;36.61;101363.53;5074198;28;20021;-44
2022/11/19 14:47:39;;;;;;;12.15;8.70;;;;;;;23.43;36.80;101370.53;5073727;28;20029;-43
2022/11/19 14:50:13;;;;;;;12.13;8.05;;;;;;;23.42;36.89;101368.78;5073711;28;20025;-43
2022/11/19 14:52:59;;;;;;;10.10;7.72;;;;;;;23.45;36.93;101366.22;5056415;28;20055;-44
2022/11/19 14:55:29;;;;;;;8.85;6.00;;;;;;;23.47;36.81;101361.91;5074048;28;20028;-46
2022/11/19 14:58:00;;;;;;;8.23;6.60;;;;;;;23.51;36.77;101366.34;5056326;28;20024;-47
2022/11/19 15:00:29;;;;;;;9.50;5.72;;;;;;;23.43;36.87;101354.84;5073804;28;20063;-45
2022/11/19 15:02:57;;;;;;;7.28;5.38;;;;;;;23.46;36.70;101360.16;5056080;28;20060;-44
2022/11/19 15:05:27;;;;;;;20.95;13.30;;;;;;;23.40;37.10;101352.16;5056074;28;20477;-44
2022/11/19 15:08:18;;;;;;;20.42;15.30;;;;;;;23.34;36.96;101358.13;5073600;28;20481;-44
2022/11/19 15:11:08;;;;;;;18.00;13.45;;;;;;;23.43;37.12;101344.38;5066308;28;20039;-43
2022/11/19 15:13:39;;;;;;;18.13;13.75;;;;;;;23.57;36.45;101333.28;5074057;28;20028;-49
2022/11/19 15:16:28;;;;;;;19.70;12.55;;;;;;;23.61;36.45;101333.38;5073864;28;20028;-52
2022/11/19 15:19:11;;;;;;;19.85;12.27;;;;;;;23.50;36.64;101324.44;5073426;28;20111;-50
2022/11/19 15:21:59;;;;;;;18.52;11.82;;;;;;;23.43;37.28;101317.28;5056029;28;20112;-44
2022/11/19 15:24:51;;;;;;;15.60;10.18;;;;;;;23.37;37.06;101310.19;5063008;28;20104;-43
2022/11/19 15:27:28;;;;;;;15.93;11.45;;;;;;;23.44;37.14;101304.25;5065285;28;20044;-50
2022/11/19 15:30:18;;;;;;;34.45;26.77;;;;;;;23.48;37.25;101316.56;5073252;28;20040;-48
2022/11/19 15:32:47;;;;;;;28.33;21.05;;;;;;;23.48;37.22;101311.31;5073134;28;20032;-54
2022/11/19 15:35:35;;;;;;;27.00;18.23;;;;;;;23.41;37.46;101308.53;5055268;28;20477;-53
2022/11/19 15:38:22;;;;;;;21.35;16.48;;;;;;;23.39;37.37;101308.50;5063129;28;20501;-50
2022/11/19 15:40:54;;;;;;;18.25;13.80;;;;;;;23.44;37.36;101313.81;5073567;28;20020;-54
2022/11/19 15:43:22;;;;;;;17.80;13.00;;;;;;;23.43;37.36;101307.72;5073650;28;20024;-54
2022/11/19 15:46:11;;;;;;;18.08;12.18;;;;;;;23.44;37.38;101312.09;5073396;28;20016;-53
2022/11/19 15:48:47;;;;;;;16.40;11.05;;;;;;;23.57;37.25;101308.00;5046135;28;20041;-54
2022/11/19 15:51:17;;;;;;;18.33;10.02;;;;;;;23.57;37.73;101318.47;5051574;28;20076;-53
2022/11/19 15:54:06;;;;;;;16.63;9.18;;;;;;;23.54;37.80;101313.16;5052209;28;20029;-51
2022/11/19 15:56:38;;;;;;;12.32;8.95;;;;;;;23.57;37.52;101312.34;5053073;28;20021;-45
2022/11/19 15:59:08;;;;;;;10.73;7.43;;;;;;;23.58;37.40;101307.13;5053112;28;20025;-43
2022/11/19 16:01:36;;;;;;;22.73;7.53;;;;;;;23.58;37.47;101317.59;5052722;28;20116;-49
2022/11/19 16:04:09;;;;;;;11.95;7.57;;;;;;;23.64;37.72;101316.88;5053060;28;20453;-46
2022/11/19 16:06:41;;;;;;;13.23;6.63;;;;;;;23.76;37.35;101321.44;5052493;28;20098;-44
2022/11/19 16:09:18;;;;;;;9.43;5.78;;;;;;;23.76;37.25;101317.09;5052970;28;20029;-47
2022/11/19 16:17:42;;;;;;;7.13;5.05;;;;;;;23.83;37.54;101311.09;5048868;28;20039;-43
2022/11/19 16:20:11;;;;;;;7.82;4.65;;;;;;;23.92;37.27;101310.38;5052634;28;20360;-49
2022/11/19 16:23:00;;;;;;;8.65;4.53;;;;;;;23.89;37.72;101297.25;5052702;28;20104;-44
2022/11/19 16:25:38;;;;;;;6.47;3.90;;;;;;;23.97;37.59;101294.81;5052788;28;20033;-45
2022/11/19 16:28:29;;;;;;;8.68;4.05;;;;;;;24.07;37.19;101295.88;5045299;28;20040;-44
2022/11/19 16:31:01;;;;;;;6.90;3.50;;;;;;;24.12;37.51;101300.31;5051024;28;20029;-48
2022/11/19 16:33:30;;;;;;;5.40;3.22;;;;;;;24.14;37.20;101297.72;5033619;28;20441;-45
2022/11/19 16:36:18;;;;;;;6.25;3.67;;;;;;;24.21;37.30;101293.47;5049961;28;20064;-45
2022/11/19 16:38:48;;;;;;;4.78;2.92;;;;;;;24.26;37.38;101292.69;5049366;28;20107;-44
2022/11/19 16:44:06;;;;;;;4.35;2.78;;;;;;;24.31;37.19;101292.78;5044573;28;20037;-46
2022/11/19 16:46:34;;;;;;;5.38;2.92;;;;;;;24.30;37.24;101288.41;5050830;28;20533;-44
2022/11/19 16:49:04;;;;;;;8.48;3.17;;;;;;;24.34;37.30;101292.81;5049312;28;20087;-44
2022/11/19 16:51:52;;;;;;;5.75;2.67;;;;;;;24.32;37.29;101291.94;5060969;28;20048;-43
2022/11/19 16:54:49;;;;;;;4.75;2.75;;;;;;;24.33;37.57;101279.69;5071099;28;20032;-43
2022/11/19 16:57:20;;;;;;;5.88;2.88;;;;;;;24.42;37.12;101277.19;5065525;28;20424;-44
2022/11/19 16:59:50;;;;;;;4.45;2.97;;;;;;;24.47;37.00;101277.31;5071311;28;20020;-51
2022/11/19 17:02:20;;;;;;;5.75;2.90;;;;;;;24.50;37.27;101272.97;5071026;28;20060;-45
2022/11/19 17:04:49;;;;;;;3.85;2.95;;;;;;;24.53;37.01;101270.41;5070951;28;20025;-48
2022/11/19 17:07:28;;;;;;;3.33;2.47;;;;;;;24.51;37.13;101277.38;5052615;28;20059;-53
2022/11/19 17:10:15;;;;;;;4.00;2.38;;;;;;;24.53;36.98;101272.13;5071330;28;20392;-53
2022/11/19 17:12:58;;;;;;;5.97;2.88;;;;;;;24.52;37.42;101270.38;5063042;28;20413;-44
2022/11/19 17:15:40;;;;;;;8.68;2.45;;;;;;;24.58;37.24;101275.72;5057340;28;20021;-54
2022/11/19 17:18:09;;;;;;;6.78;3.13;;;;;;;24.62;37.28;101279.25;5074587;28;20036;-52
2022/11/19 17:20:37;;;;;;;4.40;2.08;;;;;;;24.68;37.19;101277.59;5075266;28;20371;-44
2022/11/19 17:23:25;;;;;;;3.30;2.58;;;;;;;24.64;37.07;101270.56;5074696;28;20040;-50
2022/11/19 17:25:55;;;;;;;3.55;2.20;;;;;;;24.76;36.98;101271.63;5065228;28;20032;-55
2022/11/19 17:28:39;;;;;;;4.68;2.50;;;;;;;24.70;36.79;101265.44;5074173;28;20107;-54
2022/11/19 17:31:26;;;;;;;3.67;2.17;;;;;;;24.69;37.16;101266.25;5071387;28;20393;-47
2022/11/19 17:34:08;;;;;;;2.80;1.67;;;;;;;24.72;36.93;101268.09;5074544;28;20069;-47
2022/11/19 17:36:36;;;;;;;5.40;2.03;;;;;;;24.79;36.87;101261.19;5074805;28;20020;-51
2022/11/19 17:39:09;;;;;;;6.07;2.20;;;;;;;24.80;36.51;101266.44;5052816;28;20539;-47
2022/11/19 17:44:35;;;;;;;5.22;1.55;;;;;;;24.79;36.52;101256.81;5046411;28;20040;-50
2022/11/19 17:47:04;;;;;;;3.03;1.92;;;;;;;24.73;36.74;101252.38;5057799;28;20028;-49
2022/11/19 17:49:32;;;;;;;5.82;3.38;;;;;;;24.80;36.75;101260.34;5074378;28;20035;-45
2022/11/19 17:52:00;;;;;;;27.48;19.50;;;;;;;24.85;36.65;101261.25;5056349;28;20056;-49
2022/11/19 17:54:31;;;;;;;26.55;16.60;;;;;;;24.84;36.58;101262.13;5039163;28;20477;-43
2022/11/19 17:57:00;;;;;;;19.08;13.13;;;;;;;24.86;36.76;101260.41;5073856;28;20024;-45
2022/11/19 17:59:28;;;;;;;20.05;11.43;;;;;;;24.87;36.52;101265.69;5073946;28;20032;-45
2022/11/19 18:01:57;;;;;;;17.02;11.40;;;;;;;24.81;36.49;101252.47;5074351;28;20473;-44
2022/11/19 18:04:26;;;;;;;16.63;9.82;;;;;;;24.86;36.55;101266.56;5073756;28;20078;-43
2022/11/19 18:06:55;;;;;;;14.23;9.45;;;;;;;24.90;36.46;101264.84;5073552;28;20122;-43
2022/11/19 18:09:23;;;;;;;12.65;8.65;;;;;;;24.91;36.72;101273.59;5073390;28;20099;-45
2022/11/19 18:11:52;;;;;;;13.00;8.48;;;;;;;24.94;36.28;101274.53;5073963;28;20032;-44
2022/11/19 18:14:20;;;;;;;16.65;8.20;;;;;;;24.92;36.68;101275.34;5072944;28;20024;-44
2022/11/19 18:16:49;;;;;;;11.70;7.38;;;;;;;24.96;36.45;101270.19;5072893;28;20012;-43
2022/11/19 18:19:27;;;;;;;11.43;6.63;;;;;;;24.97;36.42;101268.44;5073484;28;20039;-43
2022/11/19 18:21:56;;;;;;;9.82;6.28;;;;;;;25.01;36.26;101265.00;5073678;28;20017;-43
2022/11/19 18:24:25;;;;;;;9.90;6.55;;;;;;;25.00;36.69;101271.97;5073208;28;20035;-43
2022/11/19 18:26:53;;;;;;;8.65;6.05;;;;;;;25.03;36.62;101281.66;5073539;28;20036;-43
2022/11/19 18:29:22;;;;;;;9.05;5.93;;;;;;;25.05;36.47;101279.03;5073551;28;20033;-43
2022/11/19 18:31:52;;;;;;;8.50;5.78;;;;;;;25.08;36.60;101269.44;5074322;28;20058;-43
2022/11/19 18:34:22;;;;;;;9.10;5.65;;;;;;;25.07;36.41;101269.44;5056120;28;20028;-43
2022/11/19 18:36:51;;;;;;;7.53;4.97;;;;;;;25.11;36.53;101268.63;5074227;28;20122;-43
2022/11/19 18:39:20;;;;;;;10.07;4.70;;;;;;;25.16;36.28;101272.16;5073594;28;20029;-44
2022/11/19 18:41:48;;;;;;;6.55;4.63;;;;;;;25.14;36.65;101272.16;5074495;28;20112;-43
2022/11/19 18:44:37;;;;;;;8.00;4.82;;;;;;;25.10;36.50;101265.09;5073936;28;20039;-44
2022/11/19 18:47:07;;;;;;;8.95;5.43;;;;;;;25.20;36.42;101265.22;5073516;28;20072;-44
2022/11/19 18:49:35;;;;;;;7.57;4.82;;;;;;;25.24;36.70;101264.38;5073789;28;20086;-48
2022/11/19 18:52:04;;;;;;;13.40;5.97;;;;;;;25.28;36.61;101272.34;5073290;28;20056;-44
2022/11/19 18:54:32;;;;;;;14.50;5.30;;;;;;;25.24;36.62;101265.28;5074140;28;20021;-45
2022/11/19 18:57:01;;;;;;;16.05;7.03;;;;;;;25.28;36.75;101276.69;5073537;28;20119;-43
2022/11/19 18:59:29;;;;;;;16.50;6.60;;;;;;;25.31;36.79;101277.63;5055871;28;20448;-43
2022/11/19 19:01:58;;;;;;;12.45;5.38;;;;;;;25.35;36.64;101262.78;5073579;28;20032;-43
2022/11/19 19:04:27;;;;;;;15.95;5.85;;;;;;;25.34;36.99;101263.66;5055846;28;20461;-54
2022/11/19 19:06:54;;;;;;;16.73;5.82;;;;;;;25.36;36.90;101255.78;5072840;28;20043;-50
2022/11/19 19:09:23;;;;;;;17.75;6.97;;;;;;;25.38;36.98;101254.97;5073401;28;20376;-48
2022/11/19 19:12:34;;;;;;;12.23;5.28;;;;;;;25.40;36.97;101258.44;5073286;28;20024;-52
2022/11/19 19:14:40;;;;;;;18.88;6.38;;;;;;;25.44;36.90;101262.91;5063982;28;20025;-54
2022/11/19 19:17:08;;;;;;;18.05;6.28;;;;;;;25.45;37.01;101266.44;5072255;28;20012;-49
2022/11/19 19:19:37;;;;;;;19.30;6.55;;;;;;;25.49;36.88;101268.22;5073265;28;20557;-54
2022/11/19 19:22:04;;;;;;;16.15;5.18;;;;;;;25.53;36.79;101267.41;5073626;28;20436;-51
2022/11/19 19:24:33;;;;;;;11.55;4.68;;;;;;;25.54;36.86;101258.66;5073271;28;20473;-55
2022/11/19 19:27:01;;;;;;;15.27;5.28;;;;;;;25.56;36.66;101250.81;5072263;28;20021;-50
2022/11/19 19:29:30;;;;;;;14.00;5.18;;;;;;;25.55;36.75;101246.41;5072812;28;20033;-54
2022/11/19 19:31:59;;;;;;;16.02;4.65;;;;;;;25.59;36.53;101256.06;5073133;28;20560;-53
2022/11/19 19:34:29;;;;;;;13.27;4.55;;;;;;;25.58;36.79;101249.06;5073149;28;20029;-48
2022/11/19 19:36:58;;;;;;;16.25;4.80;;;;;;;25.61;36.47;101249.09;5072220;28;20032;-47
2022/11/19 19:39:26;;;;;;;12.68;4.30;;;;;;;25.60;36.53;101255.22;5072834;28;20033;-43
2022/11/19 19:41:53;;;;;;;9.68;4.05;;;;;;;25.60;36.75;101252.59;5072528;28;20645;-45
2022/11/19 19:44:22;;;;;;;15.63;4.65;;;;;;;25.64;36.41;101254.38;5055445;28;20520;-47
2022/11/19 19:46:50;;;;;;;9.02;3.28;;;;;;;25.65;36.40;101252.66;5072312;28;20381;-44
2022/11/19 19:49:19;;;;;;;9.27;3.35;;;;;;;25.63;36.64;101255.25;5054269;28;20380;-46
2022/11/19 19:51:48;;;;;;;10.43;3.88;;;;;;;25.67;36.61;101257.06;5072392;28;20136;-44
2022/11/19 19:54:17;;;;;;;9.75;3.50;;;;;;;25.71;36.20;101253.59;5072790;28;20071;-45
2022/11/19 19:56:44;;;;;;;12.40;3.28;;;;;;;25.73;36.18;101250.97;5072255;28;20028;-44
2022/11/19 19:59:14;;;;;;;9.43;3.22;;;;;;;25.71;36.24;101247.44;5072220;28;20090;-44
2022/11/19 20:01:46;;;;;;;8.00;3.10;;;;;;;25.71;36.04;101247.44;5054620;28;20121;-44
2022/11/19 20:04:14;;;;;;;7.55;2.65;;;;;;;25.74;36.08;101240.47;5072711;28;20082;-44
2022/11/19 20:06:46;;;;;;;8.80;3.40;;;;;;;25.78;36.18;101242.25;5072369;28;20153;-44
2022/11/19 20:09:14;;;;;;;5.97;2.47;;;;;;;25.80;35.84;101237.03;5053440;28;20086;-44
2022/11/19 20:11:41;;;;;;;7.63;3.20;;;;;;;25.78;36.00;101237.00;5072236;28;20081;-51
2022/11/19 20:14:09;;;;;;;6.80;2.55;;;;;;;25.81;35.83;101230.91;5070540;28;20031;-44
2022/11/19 20:16:39;;;;;;;8.82;2.72;;;;;;;25.79;35.95;101235.28;5071418;28;20024;-43
2022/11/19 20:19:10;;;;;;;10.25;3.28;;;;;;;25.82;36.10;101230.03;5071155;28;20029;-46
2022/11/19 20:21:38;;;;;;;8.57;2.00;;;;;;;25.78;35.74;101229.13;5071544;28;20432;-44
2022/11/19 20:24:07;;;;;;;3.05;1.45;;;;;;;25.78;35.96;101225.63;5071318;28;20116;-44
2022/11/19 20:26:36;;;;;;;4.72;2.10;;;;;;;25.82;35.98;101227.41;5071139;28;20052;-44
2022/11/19 20:29:05;;;;;;;4.82;1.70;;;;;;;25.81;35.49;101227.41;5071148;28;20103;-50
2022/11/19 20:31:33;;;;;;;3.95;1.88;;;;;;;25.83;35.64;101217.78;5070502;28;20055;-44
2022/11/19 20:34:04;;;;;;;5.43;1.75;;;;;;;25.78;35.69;101223.88;5052830;28;20036;-44
2022/11/19 20:36:33;;;;;;;5.50;2.00;;;;;;;25.76;35.61;101228.22;5068916;28;20473;-44
2022/11/19 20:39:01;;;;;;;9.73;2.05;;;;;;;25.75;35.12;101226.47;5052909;28;20032;-44
2022/11/19 20:44:20;;;;;;;2.97;1.52;;;;;;;25.74;35.46;101224.69;5060092;28;20051;-44
2022/11/19 20:46:50;;;;;;;7.07;1.55;;;;;;;25.84;34.99;101223.03;5070997;28;20016;-43
2022/11/19 20:49:18;;;;;;;4.65;1.45;;;;;;;25.76;35.12;101215.09;5067506;28;20028;-44
2022/11/19 20:51:45;;;;;;;4.30;1.42;;;;;;;25.73;35.46;101222.94;5070719;28;20090;-46
2022/11/19 20:54:14;;;;;;;4.05;1.60;;;;;;;25.74;35.44;101221.19;5036500;28;20162;-43
2022/11/19 20:56:43;;;;;;;3.53;1.40;;;;;;;25.82;35.18;101222.13;5072133;28;20031;-43
2022/11/19 20:59:12;;;;;;;3.85;1.13;;;;;;;25.88;34.93;101214.31;5072416;28;20031;-43
2022/11/19 21:01:42;;;;;;;6.82;1.52;;;;;;;25.81;35.12;101224.75;5054721;28;20032;-44
